createdAt,value
2019-03-25T00:02:06.294Z,8.96
2019-03-25T00:04:37.327Z,8.93
2019-03-25T00:07:08.434Z,8.90
2019-03-25T00:09:39.459Z,8.87
2019-03-25T00:12:10.454Z,8.82
2019-03-25T00:14:41.485Z,8.79
2019-03-25T00:17:12.474Z,8.74
2019-03-25T00:19:43.603Z,8.71
2019-03-25T00:22:14.605Z,8.66
2019-03-25T00:24:45.641Z,8.63
2019-03-25T00:27:16.751Z,8.59
2019-03-25T00:29:47.791Z,8.57
2019-03-25T00:32:18.787Z,8.56
2019-03-25T00:34:49.819Z,8.52
2019-03-25T00:37:20.815Z,8.50
2019-03-25T00:39:51.908Z,8.49
2019-03-25T00:42:22.938Z,8.46
2019-03-25T00:44:53.932Z,8.45
2019-03-25T00:47:25.001Z,8.42
2019-03-25T00:49:55.998Z,8.37
2019-03-25T00:52:27.052Z,8.35
2019-03-25T00:54:58.045Z,8.32
2019-03-25T00:57:29.040Z,8.28
2019-03-25T01:00:00.075Z,8.22
2019-03-25T01:02:31.146Z,8.21
2019-03-25T01:05:02.142Z,8.16
2019-03-25T01:07:33.126Z,8.06
2019-03-25T01:10:04.363Z,8.03
2019-03-25T01:12:35.353Z,8.00
2019-03-25T01:15:06.931Z,8.01
2019-03-25T01:17:37.960Z,7.87
2019-03-25T01:20:10.269Z,7.97
2019-03-25T01:22:41.312Z,7.99
2019-03-25T01:25:12.450Z,8.00
2019-03-25T01:27:43.480Z,8.00
2019-03-25T01:30:14.780Z,8.00
2019-03-25T01:32:45.795Z,7.98
2019-03-25T01:35:16.828Z,7.98
2019-03-25T01:37:47.806Z,7.98
2019-03-25T01:40:18.923Z,7.97
2019-03-25T01:42:49.899Z,7.95
2019-03-25T01:45:20.925Z,7.91
2019-03-25T01:47:51.904Z,7.87
2019-03-25T01:50:22.916Z,7.82
2019-03-25T01:52:53.916Z,7.74
2019-03-25T01:55:24.937Z,7.63
2019-03-25T01:57:56.025Z,7.51
2019-03-25T02:00:27.082Z,7.38
2019-03-25T02:02:58.164Z,7.29
2019-03-25T02:05:29.294Z,7.23
2019-03-25T02:08:00.275Z,7.17
2019-03-25T02:10:31.300Z,7.09
2019-03-25T02:13:02.314Z,7.07
2019-03-25T02:15:33.345Z,7.05
2019-03-25T02:18:04.436Z,7.01
2019-03-25T02:20:35.483Z,6.91
2019-03-25T02:23:06.842Z,6.94
2019-03-25T02:25:37.980Z,6.88
2019-03-25T02:28:09.030Z,6.91
2019-03-25T02:30:40.014Z,6.93
2019-03-25T02:33:11.088Z,6.91
2019-03-25T02:35:42.134Z,6.86
2019-03-25T02:38:13.153Z,6.86
2019-03-25T02:40:44.137Z,6.86
2019-03-25T02:43:15.147Z,6.81
2019-03-25T02:45:46.134Z,6.78
2019-03-25T02:48:17.151Z,6.66
2019-03-25T02:50:48.348Z,6.64
2019-03-25T02:53:19.342Z,6.62
2019-03-25T02:55:50.560Z,6.63
2019-03-25T02:58:21.522Z,6.61
2019-03-25T03:00:52.514Z,6.57
2019-03-25T03:03:23.506Z,6.56
2019-03-25T03:05:54.522Z,6.54
2019-03-25T03:08:25.645Z,6.45
2019-03-25T03:10:56.667Z,6.43
2019-03-25T03:13:27.689Z,6.39
2019-03-25T03:15:58.672Z,6.40
2019-03-25T03:18:29.703Z,6.36
2019-03-25T03:21:00.674Z,6.34
2019-03-25T03:23:31.657Z,6.28
2019-03-25T03:26:02.646Z,6.28
2019-03-25T03:28:33.681Z,6.25
2019-03-25T03:31:04.772Z,6.29
2019-03-25T03:33:35.802Z,6.32
2019-03-25T03:36:07.014Z,6.32
2019-03-25T03:38:38.048Z,6.33
2019-03-25T03:41:09.257Z,6.34
2019-03-25T03:43:40.241Z,6.35
2019-03-25T03:46:11.276Z,6.35
2019-03-25T03:48:42.308Z,6.36
2019-03-25T03:51:13.516Z,6.36
2019-03-25T03:53:44.644Z,6.36
2019-03-25T03:56:16.376Z,6.37
2019-03-25T03:58:47.708Z,6.38
2019-03-25T04:01:18.683Z,6.38
2019-03-25T04:03:49.706Z,6.38
2019-03-25T04:06:20.738Z,6.38
2019-03-25T04:08:51.719Z,6.36
2019-03-25T04:11:22.738Z,6.33
2019-03-25T04:13:53.731Z,5.63
2019-03-25T04:16:24.752Z,6.27
2019-03-25T04:18:55.753Z,6.21
2019-03-25T04:21:26.747Z,6.23
2019-03-25T04:23:57.715Z,6.16
2019-03-25T04:26:29.598Z,6.13
2019-03-25T04:29:00.703Z,6.15
2019-03-25T04:31:31.762Z,6.11
2019-03-25T04:34:02.803Z,6.11
2019-03-25T04:36:33.772Z,6.08
2019-03-25T04:39:06.158Z,6.08
2019-03-25T04:41:37.273Z,6.09
2019-03-25T04:44:08.305Z,6.04
2019-03-25T04:46:39.313Z,6.08
2019-03-25T04:49:10.356Z,6.08
2019-03-25T04:51:41.393Z,6.26
2019-03-25T04:54:12.384Z,6.26
2019-03-25T04:56:43.409Z,6.40
2019-03-25T04:59:14.438Z,6.37
2019-03-25T05:01:45.430Z,6.56
2019-03-25T05:04:16.467Z,6.68
2019-03-25T05:06:47.440Z,6.84
2019-03-25T05:09:18.425Z,7.03
2019-03-25T05:11:49.464Z,7.22
2019-03-25T05:14:20.769Z,7.37
2019-03-25T05:16:51.757Z,7.46
2019-03-25T05:19:22.793Z,7.62
2019-03-25T05:21:53.822Z,7.19
2019-03-25T05:24:24.858Z,8.06
2019-03-25T05:26:55.836Z,8.30
2019-03-25T05:29:26.855Z,8.54
2019-03-25T05:31:57.846Z,8.76
2019-03-25T05:34:28.938Z,8.76
2019-03-25T05:36:59.951Z,9.00
2019-03-25T05:39:30.982Z,9.27
2019-03-25T05:42:02.117Z,9.34
2019-03-25T05:44:33.169Z,9.27
2019-03-25T05:47:04.161Z,9.40
2019-03-25T05:49:35.190Z,9.50
2019-03-25T05:52:06.178Z,9.44
2019-03-25T05:54:37.264Z,9.53
2019-03-25T05:57:08.284Z,9.59
2019-03-25T05:59:39.279Z,9.88
2019-03-25T06:02:10.324Z,9.94
2019-03-25T06:04:41.328Z,10.10
2019-03-25T06:07:12.365Z,10.15
2019-03-25T06:09:43.390Z,10.19
2019-03-25T06:12:14.440Z,10.61
2019-03-25T06:14:45.504Z,10.97
2019-03-25T06:17:16.565Z,11.09
2019-03-25T06:19:47.581Z,11.33
2019-03-25T06:22:18.640Z,11.41
2019-03-25T06:24:49.926Z,11.68
2019-03-25T06:27:21.051Z,11.80
2019-03-25T06:29:52.141Z,11.71
2019-03-25T06:32:23.397Z,11.48
2019-03-25T06:35:01.036Z,11.66
2019-03-25T06:37:32.060Z,11.82
2019-03-25T06:40:05.316Z,11.94
2019-03-25T06:42:36.351Z,12.18
2019-03-25T06:45:08.301Z,12.23
2019-03-25T06:47:39.359Z,12.34
2019-03-25T06:50:11.090Z,12.42
2019-03-25T06:52:42.147Z,12.49
2019-03-25T06:55:13.303Z,12.53
2019-03-25T06:57:44.502Z,12.74
2019-03-25T07:00:15.811Z,13.08
2019-03-25T07:02:46.845Z,13.23
2019-03-25T07:05:18.295Z,13.36
2019-03-25T07:07:49.418Z,13.44
2019-03-25T07:10:32.965Z,13.56
2019-03-25T07:13:04.378Z,13.16
2019-03-25T07:15:35.545Z,13.60
2019-03-25T07:18:06.925Z,13.45
2019-03-25T07:20:38.003Z,13.55
2019-03-25T07:23:09.035Z,13.49
2019-03-25T07:25:40.197Z,13.06
2019-03-25T07:28:11.258Z,13.67
2019-03-25T07:30:42.449Z,13.54
2019-03-25T07:33:13.512Z,13.36
2019-03-25T07:35:44.893Z,13.47
2019-03-25T07:38:15.963Z,13.50
2019-03-25T07:40:47.105Z,13.64
2019-03-25T07:43:18.335Z,13.74
2019-03-25T07:45:49.444Z,13.36
2019-03-25T07:48:20.810Z,14.08
2019-03-25T07:50:51.828Z,13.81
2019-03-25T07:53:22.862Z,13.87
2019-03-25T07:55:53.924Z,14.10
2019-03-25T07:58:25.041Z,14.26
2019-03-25T08:00:57.373Z,14.38
2019-03-25T08:03:28.407Z,14.45
2019-03-25T08:05:59.440Z,14.45
2019-03-25T08:08:30.570Z,14.01
2019-03-25T08:11:01.571Z,14.58
2019-03-25T08:13:32.606Z,14.66
2019-03-25T08:16:03.667Z,14.78
2019-03-25T08:18:34.767Z,14.97
2019-03-25T08:21:05.919Z,15.02
2019-03-25T08:23:36.966Z,14.95
2019-03-25T08:26:08.130Z,15.08
2019-03-25T08:28:39.191Z,15.22
2019-03-25T08:31:10.340Z,15.13
2019-03-25T08:33:41.410Z,15.26
2019-03-25T08:36:12.662Z,15.50
2019-03-25T08:38:43.697Z,15.68
2019-03-25T08:41:14.762Z,15.79
2019-03-25T08:43:45.805Z,15.95
2019-03-25T08:46:16.798Z,15.96
2019-03-25T08:48:47.830Z,15.94
2019-03-25T08:51:18.865Z,16.13
2019-03-25T08:53:49.901Z,16.09
2019-03-25T08:56:20.915Z,16.29
2019-03-25T08:58:51.956Z,16.44
2019-03-25T09:01:23.010Z,16.50
2019-03-25T09:03:54.020Z,16.52
2019-03-25T09:06:25.132Z,16.64
2019-03-25T09:08:56.190Z,16.74
2019-03-25T09:11:27.208Z,16.87
2019-03-25T09:13:58.299Z,16.85
2019-03-25T09:16:29.373Z,16.91
2019-03-25T09:19:00.423Z,16.96
2019-03-25T09:21:31.462Z,17.05
2019-03-25T09:24:02.479Z,17.16
2019-03-25T09:26:33.519Z,17.22
2019-03-25T09:29:04.579Z,17.18
2019-03-25T09:31:37.223Z,17.31
2019-03-25T09:34:08.610Z,17.49
2019-03-25T09:36:42.640Z,17.59
2019-03-25T09:39:13.913Z,17.70
2019-03-25T09:41:45.025Z,17.73
2019-03-25T09:44:16.349Z,17.87
2019-03-25T09:46:47.363Z,17.97
2019-03-25T09:49:18.477Z,17.96
2019-03-25T09:52:10.232Z,18.08
2019-03-25T09:54:44.155Z,18.13
2019-03-25T09:57:15.235Z,18.18
2019-03-25T09:59:46.578Z,18.29
2019-03-25T10:02:17.838Z,18.29
2019-03-25T10:04:49.369Z,18.29
2019-03-25T10:07:25.133Z,17.82
2019-03-25T10:09:56.233Z,18.34
2019-03-25T10:12:27.261Z,18.41
2019-03-25T10:14:58.366Z,18.34
2019-03-25T10:17:29.414Z,18.36
2019-03-25T10:20:00.651Z,18.45
2019-03-25T10:22:31.757Z,18.46
2019-03-25T10:25:02.762Z,18.57
2019-03-25T10:27:35.857Z,18.53
2019-03-25T10:30:08.034Z,18.61
2019-03-25T10:32:39.166Z,18.69
2019-03-25T10:35:10.717Z,18.43
2019-03-25T10:37:41.858Z,18.77
2019-03-25T10:40:13.806Z,18.60
2019-03-25T10:42:44.886Z,18.50
2019-03-25T10:45:16.111Z,18.64
2019-03-25T10:47:47.134Z,18.62
2019-03-25T10:50:18.254Z,18.71
2019-03-25T10:52:49.594Z,18.74
2019-03-25T10:55:20.640Z,18.75
2019-03-25T10:57:51.630Z,18.76
2019-03-25T11:00:23.459Z,18.85
2019-03-25T11:02:54.458Z,18.35
2019-03-25T11:05:25.597Z,18.88
2019-03-25T11:07:56.658Z,18.91
2019-03-25T11:10:27.868Z,18.90
2019-03-25T11:12:58.945Z,18.88
2019-03-25T11:15:29.957Z,18.89
2019-03-25T11:18:01.038Z,18.86
2019-03-25T11:20:32.046Z,18.88
2019-03-25T11:23:03.099Z,18.92
2019-03-25T11:25:34.203Z,18.98
2019-03-25T11:28:05.311Z,18.95
2019-03-25T11:30:55.216Z,18.99
2019-03-25T11:33:26.730Z,18.96
2019-03-25T11:35:57.963Z,18.94
2019-03-25T11:38:29.351Z,18.99
2019-03-25T11:41:00.842Z,19.05
2019-03-25T11:43:32.041Z,19.04
2019-03-25T11:46:03.051Z,18.50
2019-03-25T11:48:34.189Z,19.08
2019-03-25T11:51:05.216Z,19.12
2019-03-25T11:53:36.330Z,19.11
2019-03-25T11:56:07.516Z,19.12
2019-03-25T11:58:38.521Z,19.17
2019-03-25T12:01:09.766Z,19.20
2019-03-25T12:03:40.812Z,19.25
2019-03-25T12:06:11.954Z,19.26
2019-03-25T12:08:43.080Z,19.34
2019-03-25T12:11:14.334Z,19.36
2019-03-25T12:13:45.346Z,19.41
2019-03-25T12:16:16.429Z,19.45
2019-03-25T12:18:47.439Z,19.43
2019-03-25T12:21:18.477Z,19.51
2019-03-25T12:23:49.509Z,19.60
2019-03-25T12:26:20.692Z,19.60
2019-03-25T12:28:51.802Z,19.63
2019-03-25T12:31:22.874Z,19.18
2019-03-25T12:33:53.894Z,19.72
2019-03-25T12:36:24.938Z,19.81
2019-03-25T12:38:56.006Z,19.84
2019-03-25T12:41:27.044Z,19.93
2019-03-25T12:43:58.059Z,19.98
2019-03-25T12:46:29.052Z,20.06
2019-03-25T12:49:00.086Z,20.15
2019-03-25T12:51:31.064Z,20.23
2019-03-25T12:54:02.147Z,20.26
2019-03-25T12:56:33.238Z,20.30
2019-03-25T12:59:04.457Z,20.34
2019-03-25T13:01:35.522Z,20.43
2019-03-25T13:04:07.571Z,20.51
2019-03-25T13:06:38.651Z,20.58
2019-03-25T13:09:09.782Z,20.68
2019-03-25T13:11:40.854Z,20.73
2019-03-25T13:14:11.930Z,20.77
2019-03-25T13:16:43.027Z,20.78
2019-03-25T13:19:14.053Z,20.80
2019-03-25T13:21:45.110Z,20.88
2019-03-25T13:24:16.170Z,20.95
2019-03-25T13:26:47.214Z,21.04
2019-03-25T13:29:18.274Z,21.00
2019-03-25T13:31:49.333Z,21.07
2019-03-25T13:34:20.443Z,21.13
2019-03-25T13:36:51.457Z,21.14
2019-03-25T13:39:22.509Z,21.22
2019-03-25T13:41:53.505Z,21.26
2019-03-25T13:44:24.521Z,21.32
2019-03-25T13:46:55.529Z,21.37
2019-03-25T13:49:26.582Z,21.39
2019-03-25T13:51:57.715Z,21.39
2019-03-25T13:54:28.734Z,21.38
2019-03-25T13:56:59.801Z,21.39
2019-03-25T13:59:30.830Z,21.43
2019-03-25T14:02:01.910Z,21.42
2019-03-25T14:04:33.447Z,21.45
2019-03-25T14:07:04.680Z,21.49
2019-03-25T14:09:35.787Z,21.50
2019-03-25T14:12:06.856Z,21.03
2019-03-25T14:14:37.877Z,21.56
2019-03-25T14:17:09.334Z,21.57
2019-03-25T14:19:40.401Z,21.60
2019-03-25T14:22:11.399Z,21.60
2019-03-25T14:24:42.431Z,21.63
2019-03-25T14:27:13.440Z,21.62
2019-03-25T14:29:44.471Z,21.60
2019-03-25T14:32:15.588Z,21.60
2019-03-25T14:34:46.599Z,21.59
2019-03-25T14:37:17.640Z,21.59
2019-03-25T14:39:48.706Z,21.56
2019-03-25T14:42:19.696Z,21.53
2019-03-25T14:44:50.701Z,21.46
2019-03-25T14:47:21.965Z,21.42
2019-03-25T14:49:53.015Z,21.38
2019-03-25T14:52:24.006Z,21.35
2019-03-25T14:54:55.036Z,21.27
2019-03-25T14:57:26.022Z,21.28
2019-03-25T14:59:57.084Z,21.22
2019-03-25T15:02:28.228Z,21.22
2019-03-25T15:04:59.246Z,21.21
2019-03-25T15:07:30.252Z,21.28
2019-03-25T15:10:01.299Z,21.30
2019-03-25T15:12:32.398Z,21.34
2019-03-25T15:15:03.598Z,21.37
2019-03-25T15:17:34.725Z,21.39
2019-03-25T15:20:06.498Z,21.40
2019-03-25T15:22:37.735Z,21.35
2019-03-25T15:25:09.655Z,21.32
2019-03-25T15:27:40.660Z,20.78
2019-03-25T15:30:12.287Z,21.21
2019-03-25T15:32:43.486Z,21.19
2019-03-25T15:35:14.631Z,20.64
2019-03-25T15:37:45.680Z,21.08
2019-03-25T15:40:17.657Z,21.05
2019-03-25T15:42:48.691Z,20.99
2019-03-25T15:45:19.883Z,20.94
2019-03-25T15:47:51.176Z,20.89
2019-03-25T15:50:22.378Z,20.87
2019-03-25T15:52:53.371Z,20.83
2019-03-25T15:55:24.530Z,20.64
2019-03-25T15:57:55.546Z,20.74
2019-03-25T16:00:26.976Z,20.64
2019-03-25T16:02:58.012Z,20.60
2019-03-25T16:05:29.105Z,20.52
2019-03-25T16:08:00.128Z,20.48
2019-03-25T16:10:31.134Z,20.36
2019-03-25T16:13:02.199Z,20.34
2019-03-25T16:15:41.936Z,20.22
2019-03-25T16:18:52.771Z,20.14
2019-03-25T16:21:23.749Z,20.05
2019-03-25T16:23:54.767Z,19.90
2019-03-25T16:26:25.754Z,19.79
2019-03-25T16:28:56.795Z,19.71
2019-03-25T16:31:27.840Z,19.56
2019-03-25T16:33:58.819Z,19.46
2019-03-25T16:36:29.811Z,19.34
2019-03-25T16:39:00.830Z,19.25
2019-03-25T16:41:31.831Z,19.19
2019-03-25T16:44:02.860Z,19.06
2019-03-25T16:46:33.903Z,18.97
2019-03-25T16:49:05.132Z,18.80
2019-03-25T16:51:36.136Z,18.71
2019-03-25T16:54:07.160Z,18.59
2019-03-25T16:56:38.163Z,18.53
2019-03-25T16:59:09.166Z,18.42
2019-03-25T17:01:40.142Z,18.31
2019-03-25T17:04:11.197Z,18.22
2019-03-25T17:06:42.191Z,18.14
2019-03-25T17:09:13.179Z,18.01
2019-03-25T17:11:44.273Z,17.89
2019-03-25T17:14:15.261Z,17.78
2019-03-25T17:16:46.291Z,17.74
2019-03-25T17:19:17.308Z,17.68
2019-03-25T17:21:57.723Z,17.61
2019-03-25T17:24:21.014Z,17.52
2019-03-25T17:26:52.007Z,17.47
2019-03-25T17:29:23.025Z,17.38
2019-03-25T17:31:54.001Z,17.27
2019-03-25T17:34:24.985Z,17.17
2019-03-25T17:36:56.009Z,17.07
2019-03-25T17:39:26.985Z,17.02
2019-03-25T17:41:58.013Z,16.91
2019-03-25T17:44:28.992Z,16.85
2019-03-25T17:47:00.032Z,16.76
2019-03-25T17:49:31.038Z,16.68
2019-03-25T17:52:02.061Z,16.66
2019-03-25T17:54:33.046Z,16.59
2019-03-25T17:57:04.027Z,16.50
2019-03-25T17:59:35.048Z,16.46
2019-03-25T18:02:06.237Z,16.36
2019-03-25T18:04:37.258Z,15.19
2019-03-25T18:07:08.488Z,16.26
2019-03-25T18:09:39.479Z,16.21
2019-03-25T18:12:10.503Z,16.19
2019-03-25T18:14:41.533Z,16.16
2019-03-25T18:17:12.569Z,16.02
2019-03-25T18:19:43.564Z,16.01
2019-03-25T18:22:14.531Z,15.95
2019-03-25T18:24:45.552Z,15.89
2019-03-25T18:27:16.539Z,15.83
2019-03-25T18:29:47.591Z,15.79
2019-03-25T18:32:18.555Z,15.75
2019-03-25T18:34:49.575Z,15.68
2019-03-25T18:37:20.640Z,15.65
2019-03-25T18:39:51.638Z,15.68
2019-03-25T18:42:22.659Z,15.63
2019-03-25T18:44:53.727Z,15.58
2019-03-25T18:47:24.837Z,15.55
2019-03-25T18:49:55.813Z,15.48
2019-03-25T18:52:26.812Z,15.43
2019-03-25T18:54:57.966Z,15.38
2019-03-25T18:57:28.988Z,15.25
2019-03-25T18:59:59.999Z,15.28
2019-03-25T19:02:31.181Z,15.15
2019-03-25T19:05:02.213Z,15.21
2019-03-25T19:07:33.986Z,15.15
2019-03-25T19:10:05.338Z,15.13
2019-03-25T19:12:36.355Z,15.08
2019-03-25T19:15:07.559Z,15.01
2019-03-25T19:17:38.579Z,14.93
2019-03-25T19:20:09.700Z,14.89
2019-03-25T19:22:40.678Z,14.83
2019-03-25T19:25:11.823Z,14.79
2019-03-25T19:27:42.791Z,14.75
2019-03-25T19:30:14.075Z,14.73
2019-03-25T19:32:45.106Z,14.70
2019-03-25T19:35:16.201Z,14.65
2019-03-25T19:37:47.283Z,14.64
2019-03-25T19:40:18.310Z,14.60
2019-03-25T19:42:49.394Z,14.53
2019-03-25T19:45:20.493Z,14.51
2019-03-25T19:47:51.541Z,14.46
2019-03-25T19:50:22.717Z,14.41
2019-03-25T19:52:53.756Z,14.38
2019-03-25T19:55:24.744Z,14.35
2019-03-25T19:57:55.867Z,14.33
2019-03-25T20:00:37.951Z,14.30
2019-03-25T20:03:09.199Z,14.26
2019-03-25T20:05:40.272Z,14.21
2019-03-25T20:08:11.309Z,14.18
2019-03-25T20:10:42.346Z,14.12
2019-03-25T20:13:13.429Z,14.01
2019-03-25T20:15:46.513Z,13.75
2019-03-25T20:18:17.055Z,13.86
2019-03-25T20:20:48.081Z,13.77
2019-03-25T20:23:19.287Z,13.79
2019-03-25T20:25:50.231Z,13.55
2019-03-25T20:28:21.265Z,13.57
2019-03-25T20:30:52.269Z,13.47
2019-03-25T20:33:23.299Z,13.36
2019-03-25T20:35:54.308Z,13.34
2019-03-25T20:38:25.342Z,13.41
2019-03-25T20:40:56.353Z,13.49
2019-03-25T20:43:27.327Z,13.47
2019-03-25T20:45:58.386Z,13.46
2019-03-25T20:48:29.357Z,13.42
2019-03-25T20:51:00.477Z,13.37
2019-03-25T20:53:31.455Z,13.41
2019-03-25T20:56:02.512Z,13.40
2019-03-25T20:58:33.695Z,13.43
2019-03-25T21:01:04.785Z,13.35
2019-03-25T21:03:35.797Z,13.34
2019-03-25T21:06:06.915Z,13.36
2019-03-25T21:08:38.007Z,13.38
2019-03-25T21:11:08.976Z,13.39
2019-03-25T21:13:40.198Z,13.37
2019-03-25T21:16:11.142Z,13.35
2019-03-25T21:18:42.205Z,13.32
2019-03-25T21:21:13.199Z,13.30
2019-03-25T21:23:44.222Z,13.29
2019-03-25T21:26:15.365Z,13.22
2019-03-25T21:28:46.376Z,13.21
2019-03-25T21:31:17.350Z,13.20
2019-03-25T21:33:48.395Z,13.18
2019-03-25T21:36:19.440Z,13.07
2019-03-25T21:38:50.510Z,13.09
2019-03-25T21:41:21.659Z,13.09
2019-03-25T21:43:52.741Z,13.08
2019-03-25T21:46:23.846Z,13.03
2019-03-25T21:48:54.962Z,12.99
2019-03-25T21:51:25.928Z,12.96
2019-03-25T21:53:57.046Z,12.33
2019-03-25T21:56:28.132Z,12.87
2019-03-25T21:59:00.451Z,12.83
2019-03-25T22:01:31.722Z,12.76
2019-03-25T22:04:02.713Z,12.32
2019-03-25T22:06:33.709Z,12.62
2019-03-25T22:09:06.010Z,12.57
2019-03-25T22:11:37.032Z,12.50
2019-03-25T22:14:08.019Z,12.43
2019-03-25T22:16:39.003Z,12.37
2019-03-25T22:19:10.032Z,12.30
2019-03-25T22:21:41.176Z,12.23
2019-03-25T22:24:12.194Z,12.17
2019-03-25T22:26:43.177Z,12.10
2019-03-25T22:29:14.190Z,12.06
2019-03-25T22:31:45.176Z,12.01
2019-03-25T22:34:16.205Z,11.95
2019-03-25T22:36:47.187Z,10.89
2019-03-25T22:39:18.211Z,11.87
2019-03-25T22:41:49.196Z,11.82
2019-03-25T22:44:20.235Z,11.77
2019-03-25T22:46:51.234Z,11.74
2019-03-25T22:49:22.271Z,11.70
2019-03-25T22:51:53.267Z,11.68
2019-03-25T22:54:24.300Z,11.65
2019-03-25T22:56:55.284Z,11.63
2019-03-25T22:59:26.266Z,11.61
2019-03-25T23:01:57.292Z,11.58
2019-03-25T23:04:28.280Z,11.58
2019-03-25T23:06:59.300Z,11.56
2019-03-25T23:09:30.289Z,11.53
2019-03-25T23:12:01.519Z,11.52
2019-03-25T23:14:32.620Z,11.50
2019-03-25T23:17:03.612Z,11.47
2019-03-25T23:19:34.666Z,11.46
2019-03-25T23:22:05.816Z,11.44
2019-03-25T23:24:36.829Z,11.35
2019-03-25T23:27:07.833Z,11.36
2019-03-25T23:29:38.874Z,11.33
2019-03-25T23:32:09.925Z,10.65
2019-03-25T23:34:41.001Z,11.26
2019-03-25T23:37:12.062Z,11.21
2019-03-25T23:39:43.114Z,11.16
2019-03-25T23:42:14.112Z,11.11
2019-03-25T23:44:45.178Z,11.06
2019-03-25T23:47:16.192Z,11.02
2019-03-25T23:49:47.232Z,10.94
2019-03-25T23:52:18.229Z,10.90
2019-03-25T23:54:49.279Z,10.84
2019-03-25T23:57:20.380Z,10.78
2019-03-25T23:59:51.417Z,10.72
